Time;durP1;ratioP1;P1;durP2;ratioP2;P2;SDS_P1;SDS_P2;PMS_P1;PMS_P2;Temp;Humidity;BMP_temperature;BMP_pressure;BME280_temperature;BME280_humidity;BME280_pressure;Samples;Min_cycle;Max_cycle;Signal;HPM_P1;HPM_P2
2023/09/30 00:00:44;;;;;;;20.33;9.77;;;20.40;99.90;;;;;;2091132;28;20095;-76
2023/09/30 00:01:44;;;;;;;25.08;9.60;;;20.40;99.90;;;;;;2084518;28;20063;-77
2023/09/30 00:02:45;;;;;;;22.58;9.88;;;20.40;99.90;;;;;;2088794;28;20060;-78
2023/09/30 00:03:45;;;;;;;19.85;9.52;;;20.40;99.90;;;;;;2089958;28;20518;-79
2023/09/30 00:04:46;;;;;;;19.73;9.32;;;20.40;99.90;;;;;;2092572;28;20028;-66
2023/09/30 00:05:47;;;;;;;22.65;9.35;;;20.40;99.90;;;;;;2087909;28;20029;-86
2023/09/30 00:06:47;;;;;;;22.00;9.02;;;20.40;99.90;;;;;;2086360;28;20083;-72
2023/09/30 00:07:48;;;;;;;19.23;8.82;;;20.30;99.90;;;;;;2088605;28;20048;-83
2023/09/30 00:08:48;;;;;;;18.33;8.75;;;20.30;99.90;;;;;;2087354;28;20113;-82
2023/09/30 00:09:50;;;;;;;22.58;8.82;;;20.30;99.90;;;;;;2092675;28;20491;-85
2023/09/30 00:10:53;;;;;;;15.70;7.63;;;20.30;99.90;;;;;;2087878;28;20044;-82
2023/09/30 00:11:55;;;;;;;14.90;7.55;;;20.30;99.90;;;;;;2087247;28;20085;-88
2023/09/30 00:12:56;;;;;;;17.10;7.78;;;20.30;99.90;;;;;;2088789;28;20033;-84
2023/09/30 00:13:56;;;;;;;12.57;7.40;;;20.40;99.90;;;;;;2089698;28;20564;-84
2023/09/30 00:14:57;;;;;;;14.02;7.40;;;20.40;99.90;;;;;;2085389;28;20037;-83
2023/09/30 00:15:58;;;;;;;14.95;7.15;;;20.30;99.90;;;;;;2092580;28;20107;-83
2023/09/30 00:16:59;;;;;;;13.07;7.07;;;20.30;99.90;;;;;;2078069;28;20385;-82
2023/09/30 00:18:01;;;;;;;14.63;6.82;;;20.30;99.90;;;;;;2088482;28;20171;-84
2023/09/30 00:19:03;;;;;;;17.42;7.57;;;20.30;99.90;;;;;;2094520;28;20035;-89
2023/09/30 00:20:04;;;;;;;15.23;7.00;;;20.20;99.90;;;;;;2089194;28;20039;-88
2023/09/30 00:21:05;;;;;;;14.35;7.35;;;20.20;99.90;;;;;;2096035;28;20049;-88
2023/09/30 00:22:06;;;;;;;30.27;6.82;;;20.10;99.90;;;;;;2089407;28;20063;-83
2023/09/30 00:23:07;;;;;;;18.60;6.38;;;20.10;99.90;;;;;;2081207;28;20053;-83
2023/09/30 00:24:08;;;;;;;14.63;5.20;;;20.10;99.90;;;;;;2094272;28;20037;-82
2023/09/30 00:25:09;;;;;;;14.88;4.80;;;20.00;99.90;;;;;;2087345;28;20055;-84
2023/09/30 00:26:10;;;;;;;12.18;4.10;;;19.90;99.90;;;;;;2093011;28;20032;-89
2023/09/30 00:27:11;;;;;;;13.35;3.80;;;19.90;99.90;;;;;;2082752;28;20056;-86
2023/09/30 00:28:11;;;;;;;13.80;4.45;;;19.80;99.90;;;;;;2090982;28;20098;-87
2023/09/30 00:29:12;;;;;;;10.23;4.00;;;19.70;99.90;;;;;;2082588;28;20121;-86
2023/09/30 00:30:13;;;;;;;8.80;3.83;;;19.70;99.90;;;;;;2084859;28;20111;-84
2023/09/30 00:31:13;;;;;;;10.07;3.75;;;19.70;99.90;;;;;;2094795;28;20512;-86
2023/09/30 00:32:14;;;;;;;8.32;3.90;;;19.60;99.90;;;;;;2089611;28;20025;-86
2023/09/30 00:33:15;;;;;;;10.07;3.30;;;19.50;99.90;;;;;;2097718;28;20102;-87
2023/09/30 00:34:15;;;;;;;8.38;3.80;;;19.40;99.90;;;;;;2093927;28;20118;-86
2023/09/30 00:35:16;;;;;;;7.03;3.50;;;19.40;99.90;;;;;;2092124;28;20024;-86
2023/09/30 00:36:17;;;;;;;8.43;3.30;;;19.30;99.90;;;;;;2084647;28;20037;-88
2023/09/30 00:37:18;;;;;;;7.20;3.50;;;19.30;99.90;;;;;;2091302;28;20037;-86
2023/09/30 00:38:18;;;;;;;6.80;3.40;;;19.20;99.90;;;;;;2090527;28;20025;-88
2023/09/30 00:39:19;;;;;;;10.02;3.33;;;19.20;99.90;;;;;;2096976;28;20059;-88
2023/09/30 00:40:19;;;;;;;9.57;3.25;;;19.10;99.90;;;;;;2091021;28;20108;-86
2023/09/30 00:41:20;;;;;;;8.98;3.40;;;19.10;99.90;;;;;;2083860;28;20431;-85
2023/09/30 00:42:21;;;;;;;10.68;3.20;;;19.10;99.90;;;;;;2076500;28;20407;-89
2023/09/30 00:43:22;;;;;;;6.82;3.10;;;19.10;99.90;;;;;;2082741;28;20034;-86
2023/09/30 00:44:23;;;;;;;6.90;3.13;;;19.10;99.90;;;;;;2100591;28;20074;-85
2023/09/30 00:45:23;;;;;;;7.75;3.30;;;19.10;99.90;;;;;;2106519;28;20559;-82
2023/09/30 00:46:29;;;;;;;6.15;3.10;;;19.10;99.90;;;;;;2082490;28;20018;-84
2023/09/30 00:47:30;;;;;;;6.78;3.10;;;19.10;99.90;;;;;;2083233;28;20033;-85
2023/09/30 00:48:35;;;;;;;8.43;3.22;;;19.10;99.90;;;;;;2094096;28;20040;-85
2023/09/30 00:49:35;;;;;;;8.73;3.40;;;19.10;99.90;;;;;;2098761;28;20100;-84
2023/09/30 00:50:37;;;;;;;8.73;3.33;;;19.10;99.90;;;;;;2099691;28;20032;-86
2023/09/30 00:51:38;;;;;;;4.85;2.88;;;19.10;99.90;;;;;;2095457;28;20071;-88
2023/09/30 00:52:39;;;;;;;7.38;2.80;;;19.10;99.90;;;;;;2090511;28;20009;-85
2023/09/30 00:53:41;;;;;;;5.32;3.10;;;19.10;99.90;;;;;;2094165;28;20036;-84
2023/09/30 00:54:43;;;;;;;8.45;3.33;;;19.10;99.90;;;;;;2101460;28;20056;-83
2023/09/30 00:55:44;;;;;;;6.03;2.92;;;19.10;99.90;;;;;;2094518;28;20028;-85
2023/09/30 00:56:46;;;;;;;5.97;3.20;;;19.10;99.90;;;;;;2095165;28;20024;-85
2023/09/30 00:57:47;;;;;;;6.15;2.65;;;19.10;99.90;;;;;;2093409;28;20629;-82
2023/09/30 00:58:48;;;;;;;6.20;2.90;;;19.10;99.90;;;;;;2074877;28;20030;-83
2023/09/30 00:59:50;;;;;;;5.45;2.80;;;19.20;99.90;;;;;;2085841;28;20025;-83
2023/09/30 01:00:52;;;;;;;5.60;2.80;;;19.10;99.90;;;;;;2089894;28;20724;-84
2023/09/30 01:01:57;;;;;;;3.75;2.60;;;19.10;99.90;;;;;;2088629;28;20054;-86
2023/09/30 01:03:03;;;;;;;5.47;2.40;;;19.00;99.90;;;;;;2081428;28;20025;-84
2023/09/30 01:04:04;;;;;;;5.20;2.40;;;19.00;99.90;;;;;;2085866;28;20064;-86
2023/09/30 01:05:07;;;;;;;9.10;2.22;;;18.90;99.90;;;;;;2089146;28;20096;-83
2023/09/30 01:06:08;;;;;;;5.32;2.05;;;18.90;99.90;;;;;;2068945;28;20022;-84
2023/09/30 01:07:09;;;;;;;4.00;1.90;;;18.80;99.90;;;;;;2072460;28;20036;-85
2023/09/30 01:08:10;;;;;;;5.50;1.70;;;18.80;99.90;;;;;;2072226;28;20041;-79
2023/09/30 01:09:12;;;;;;;4.40;1.60;;;18.80;99.90;;;;;;2079152;28;20032;-78
2023/09/30 01:10:13;;;;;;;1.92;1.30;;;18.80;99.90;;;;;;2080029;28;20036;-79
2023/09/30 01:11:15;;;;;;;4.63;1.50;;;18.70;99.90;;;;;;2087178;28;20029;-79
2023/09/30 01:12:16;;;;;;;3.72;1.70;;;18.60;99.90;;;;;;2079254;28;20039;-78
2023/09/30 01:13:17;;;;;;;4.00;1.30;;;18.60;99.90;;;;;;2079864;28;20055;-78
2023/09/30 01:14:47;;;;;;;4.15;1.48;;;18.60;99.90;;;;;;2078281;28;20037;-79
2023/09/30 01:15:48;;;;;;;9.95;1.60;;;18.60;99.90;;;;;;2075404;28;20122;-78
2023/09/30 01:16:48;;;;;;;5.38;1.25;;;18.50;99.90;;;;;;2068434;28;20554;-79
2023/09/30 01:17:49;;;;;;;4.97;1.50;;;18.40;99.90;;;;;;2083504;28;20028;-77
2023/09/30 01:18:50;;;;;;;4.72;1.67;;;18.40;99.90;;;;;;2081734;28;20021;-79
2023/09/30 01:19:52;;;;;;;3.33;1.60;;;18.30;99.90;;;;;;2073352;28;20018;-79
2023/09/30 01:20:53;;;;;;;4.70;1.40;;;18.30;99.90;;;;;;2085485;28;20025;-80
2023/09/30 01:21:58;;;;;;;4.22;1.77;;;18.20;99.90;;;;;;2093956;28;20111;-78
2023/09/30 01:23:00;;;;;;;3.15;1.70;;;18.20;99.90;;;;;;2083472;28;21108;-78
2023/09/30 01:24:01;;;;;;;5.65;1.83;;;18.20;99.90;;;;;;2089492;28;20531;-80
2023/09/30 01:25:01;;;;;;;4.57;1.90;;;18.10;99.90;;;;;;2075798;28;20061;-78
2023/09/30 01:26:03;;;;;;;4.00;1.90;;;18.00;99.90;;;;;;2083753;28;20499;-78
2023/09/30 01:27:04;;;;;;;4.00;1.90;;;18.00;99.90;;;;;;2084656;28;20021;-78
2023/09/30 01:28:08;;;;;;;8.80;1.90;;;18.00;99.90;;;;;;2090804;28;20166;-79
2023/09/30 01:29:10;;;;;;;3.90;1.98;;;18.00;99.90;;;;;;2087569;28;20066;-80
2023/09/30 01:30:13;;;;;;;4.65;1.80;;;17.90;99.90;;;;;;2087927;28;20028;-78
2023/09/30 01:31:14;;;;;;;4.18;1.92;;;18.00;99.90;;;;;;2083025;28;20412;-77
2023/09/30 01:32:15;;;;;;;3.75;1.88;;;17.90;99.90;;;;;;2078824;28;20035;-80
2023/09/30 01:33:18;;;;;;;3.45;1.90;;;17.90;99.90;;;;;;2088008;28;20052;-79
2023/09/30 01:34:19;;;;;;;4.63;2.10;;;17.90;99.90;;;;;;2089407;28;20032;-78
2023/09/30 01:35:21;;;;;;;4.32;2.00;;;17.80;99.90;;;;;;2088827;28;20043;-82
2023/09/30 01:36:22;;;;;;;3.70;1.98;;;17.80;99.90;;;;;;2082532;28;20048;-79
2023/09/30 01:37:26;;;;;;;4.55;1.95;;;17.80;99.90;;;;;;2085327;28;20135;-79
2023/09/30 01:38:27;;;;;;;6.85;2.10;;;17.70;99.90;;;;;;2075596;28;20047;-80
2023/09/30 01:39:27;;;;;;;4.47;1.95;;;17.60;99.90;;;;;;2085530;28;20035;-80
2023/09/30 01:40:28;;;;;;;3.80;2.30;;;17.60;99.90;;;;;;2088699;28;20044;-79
2023/09/30 01:41:30;;;;;;;5.18;2.08;;;17.50;99.90;;;;;;2077800;28;20403;-78
2023/09/30 01:42:31;;;;;;;3.53;2.10;;;17.60;99.90;;;;;;2089204;28;20058;-81
2023/09/30 01:43:31;;;;;;;6.55;2.45;;;17.60;99.90;;;;;;2087714;28;20640;-80
2023/09/30 01:44:32;;;;;;;4.38;2.20;;;17.50;99.90;;;;;;2085880;28;20131;-80
2023/09/30 01:45:33;;;;;;;4.28;2.13;;;17.50;99.90;;;;;;2076096;28;20582;-79
2023/09/30 01:46:34;;;;;;;4.97;2.30;;;17.60;99.90;;;;;;2082073;28;20103;-80
2023/09/30 01:47:34;;;;;;;4.30;2.30;;;17.60;99.90;;;;;;2078644;28;20068;-79
2023/09/30 01:48:35;;;;;;;4.28;2.08;;;17.50;99.90;;;;;;2078615;28;20029;-79
2023/09/30 01:49:35;;;;;;;4.57;2.30;;;17.60;99.90;;;;;;2083234;28;20042;-79
2023/09/30 01:50:39;;;;;;;3.78;2.20;;;17.60;99.90;;;;;;2087955;28;20028;-79
2023/09/30 01:51:40;;;;;;;6.22;2.40;;;17.50;99.90;;;;;;2091316;28;20039;-79
2023/09/30 01:52:41;;;;;;;4.05;2.28;;;17.50;99.90;;;;;;2083289;28;20941;-79
2023/09/30 01:53:42;;;;;;;5.93;2.60;;;17.50;99.90;;;;;;2086870;28;20448;-80
2023/09/30 01:54:43;;;;;;;5.28;2.50;;;17.50;99.90;;;;;;2087253;28;20028;-78
2023/09/30 01:55:44;;;;;;;4.75;2.28;;;17.40;99.90;;;;;;2083599;28;20057;-78
2023/09/30 01:56:45;;;;;;;4.95;2.47;;;17.50;99.90;;;;;;2088643;28;20024;-79
2023/09/30 01:57:45;;;;;;;5.18;2.35;;;17.50;99.90;;;;;;2090569;28;20480;-79
2023/09/30 01:58:46;;;;;;;5.18;2.58;;;17.50;99.90;;;;;;2087446;28;20028;-79
2023/09/30 01:59:47;;;;;;;4.93;2.40;;;17.40;99.90;;;;;;2081644;28;20563;-80
2023/09/30 02:00:47;;;;;;;5.43;2.42;;;17.40;99.90;;;;;;2074628;28;20488;-78
2023/09/30 02:01:49;;;;;;;5.60;2.28;;;17.40;99.90;;;;;;2078578;28;20411;-80
2023/09/30 02:02:51;;;;;;;3.65;2.40;;;17.40;99.90;;;;;;2082913;28;20021;-80
2023/09/30 02:03:52;;;;;;;4.55;2.60;;;17.40;99.90;;;;;;2089480;28;20027;-80
2023/09/30 02:04:53;;;;;;;4.85;2.67;;;17.30;99.90;;;;;;2080953;28;20124;-79
2023/09/30 02:05:54;;;;;;;5.78;2.60;;;17.30;99.90;;;;;;2074777;28;20025;-80
2023/09/30 02:06:54;;;;;;;4.50;2.80;;;17.20;99.90;;;;;;2082430;28;20521;-80
2023/09/30 02:07:55;;;;;;;4.40;2.58;;;17.20;99.90;;;;;;2076956;28;20536;-80
2023/09/30 02:08:56;;;;;;;4.43;2.85;;;17.20;99.90;;;;;;2080472;28;20622;-79
2023/09/30 02:09:57;;;;;;;4.80;2.70;;;17.10;99.90;;;;;;2068600;28;20452;-80
2023/09/30 02:10:58;;;;;;;8.43;2.95;;;17.10;99.90;;;;;;2070904;28;20034;-79
2023/09/30 02:11:58;;;;;;;3.88;2.70;;;17.10;99.90;;;;;;2070273;28;20630;-80
2023/09/30 02:13:00;;;;;;;5.97;2.85;;;17.10;99.90;;;;;;2075148;28;20025;-80
2023/09/30 02:14:02;;;;;;;5.30;2.97;;;17.00;99.90;;;;;;2084564;28;20647;-80
2023/09/30 02:15:07;;;;;;;7.00;3.08;;;17.00;99.90;;;;;;2087059;28;20032;-80
2023/09/30 02:16:12;;;;;;;5.60;3.05;;;17.00;99.90;;;;;;2089274;28;20095;-80
2023/09/30 02:17:13;;;;;;;6.45;2.90;;;17.00;99.90;;;;;;2071681;28;20025;-78
2023/09/30 02:18:14;;;;;;;5.40;2.83;;;17.00;99.90;;;;;;2074643;28;20080;-79
2023/09/30 02:19:15;;;;;;;5.82;2.70;;;17.00;99.90;;;;;;2071007;28;20164;-78
2023/09/30 02:20:19;;;;;;;5.05;2.38;;;17.00;99.90;;;;;;2070762;28;20026;-79
2023/09/30 02:21:21;;;;;;;5.80;2.70;;;17.00;99.90;;;;;;2066298;28;20479;-80
2023/09/30 02:22:24;;;;;;;5.53;2.63;;;17.00;99.90;;;;;;2074688;28;20770;-79
2023/09/30 02:23:25;;;;;;;6.63;2.50;;;16.90;99.90;;;;;;2071649;28;20026;-78
2023/09/30 02:24:26;;;;;;;5.88;2.45;;;16.90;99.90;;;;;;2068719;28;20787;-81
2023/09/30 02:25:26;;;;;;;8.65;2.80;;;16.90;99.90;;;;;;2078216;28;20057;-80
2023/09/30 02:26:29;;;;;;;7.45;2.45;;;16.90;99.90;;;;;;2092760;28;20044;-79
2023/09/30 02:27:29;;;;;;;6.60;2.90;;;16.90;99.90;;;;;;2084346;28;20032;-79
2023/09/30 02:28:33;;;;;;;6.25;2.80;;;16.90;99.90;;;;;;2086679;28;20032;-79
2023/09/30 02:29:34;;;;;;;5.78;2.83;;;16.90;99.90;;;;;;2082596;28;20027;-79
2023/09/30 02:30:36;;;;;;;6.78;2.40;;;16.90;99.90;;;;;;2082628;28;20484;-79
2023/09/30 02:31:37;;;;;;;6.97;2.80;;;16.90;99.90;;;;;;2089566;28;20028;-79
2023/09/30 02:32:40;;;;;;;6.47;2.50;;;16.90;99.90;;;;;;2082495;28;20024;-79
2023/09/30 02:33:41;;;;;;;7.70;2.97;;;16.90;99.90;;;;;;2083470;28;20031;-79
2023/09/30 02:34:42;;;;;;;9.75;3.00;;;16.90;99.90;;;;;;2090806;28;20021;-80
2023/09/30 02:35:46;;;;;;;8.25;2.72;;;16.90;99.90;;;;;;2091514;28;20025;-80
2023/09/30 02:36:47;;;;;;;7.10;2.72;;;16.90;99.90;;;;;;2087213;28;20584;-80
2023/09/30 02:37:49;;;;;;;6.25;2.53;;;16.90;99.90;;;;;;2086175;28;20035;-79
2023/09/30 02:38:50;;;;;;;7.85;2.72;;;16.90;99.90;;;;;;2083203;28;20048;-79
2023/09/30 02:39:51;;;;;;;9.07;2.90;;;16.90;99.90;;;;;;2083907;28;20033;-79
2023/09/30 02:40:51;;;;;;;6.97;2.50;;;16.90;99.90;;;;;;2079308;28;20025;-82
2023/09/30 02:41:52;;;;;;;5.95;2.47;;;16.90;99.90;;;;;;2091020;28;20021;-79
2023/09/30 02:42:53;;;;;;;7.97;2.67;;;17.00;99.90;;;;;;2072375;28;20030;-79
2023/09/30 02:43:54;;;;;;;8.13;2.58;;;17.00;99.90;;;;;;2067688;28;20046;-80
2023/09/30 02:44:55;;;;;;;7.35;2.58;;;17.00;99.90;;;;;;2074609;28;20185;-80
2023/09/30 02:45:55;;;;;;;7.43;2.80;;;17.00;99.90;;;;;;2068748;28;20014;-80
2023/09/30 02:46:56;;;;;;;7.20;2.58;;;17.00;99.90;;;;;;2080314;28;20499;-78
2023/09/30 02:47:57;;;;;;;10.30;2.78;;;17.00;99.90;;;;;;2083333;28;20095;-79
2023/09/30 02:48:57;;;;;;;8.05;2.35;;;17.00;99.90;;;;;;2083257;28;20064;-79
2023/09/30 02:49:58;;;;;;;9.13;2.83;;;17.00;99.90;;;;;;2083022;28;20113;-79
2023/09/30 02:50:59;;;;;;;8.68;2.55;;;17.10;99.90;;;;;;2080187;28;20033;-78
2023/09/30 02:51:59;;;;;;;7.93;2.70;;;17.10;99.90;;;;;;2078495;28;20139;-80
2023/09/30 02:53:00;;;;;;;10.27;2.92;;;17.00;99.90;;;;;;2087906;28;20107;-79
2023/09/30 02:54:03;;;;;;;8.00;2.78;;;17.00;99.90;;;;;;2076520;28;20038;-80
2023/09/30 02:55:04;;;;;;;7.18;2.88;;;17.00;99.90;;;;;;2084093;28;20554;-80
2023/09/30 02:56:04;;;;;;;6.30;2.50;;;17.00;99.90;;;;;;2089928;28;20085;-79
2023/09/30 02:57:09;;;;;;;10.73;2.60;;;17.00;99.90;;;;;;2075225;28;20052;-79
2023/09/30 02:58:11;;;;;;;8.95;2.83;;;17.00;99.90;;;;;;2091103;28;20024;-78
2023/09/30 02:59:14;;;;;;;8.15;2.70;;;16.90;99.90;;;;;;2096702;28;20119;-77
2023/09/30 03:01:23;;;;;;;8.93;2.95;;;17.00;99.90;;;;;;2086846;28;20041;-79
2023/09/30 03:02:23;;;;;;;7.25;3.17;;;17.00;99.90;;;;;;2088653;28;20039;-79
2023/09/30 03:03:25;;;;;;;10.40;2.80;;;16.90;99.90;;;;;;2086205;28;20024;-79
2023/09/30 03:04:28;;;;;;;8.20;3.00;;;16.90;99.90;;;;;;2089122;28;20732;-78
2023/09/30 03:05:32;;;;;;;14.80;3.22;;;16.90;99.90;;;;;;2084598;28;20033;-80
2023/09/30 03:06:36;;;;;;;9.55;3.10;;;16.90;99.90;;;;;;2082595;28;20080;-80
2023/09/30 03:07:38;;;;;;;7.45;3.00;;;16.80;99.90;;;;;;2077947;28;20049;-79
2023/09/30 03:08:38;;;;;;;8.13;3.25;;;16.80;99.90;;;;;;2074527;28;20668;-79
2023/09/30 03:09:39;;;;;;;8.85;3.05;;;16.80;99.90;;;;;;2074544;28;20029;-79
2023/09/30 03:10:40;;;;;;;11.25;3.10;;;16.80;99.90;;;;;;2083815;28;20017;-78
2023/09/30 03:11:42;;;;;;;10.43;3.33;;;16.80;99.90;;;;;;2090453;28;20020;-79
2023/09/30 03:12:43;;;;;;;8.23;2.97;;;16.80;99.90;;;;;;2078423;28;20029;-79
2023/09/30 03:13:43;;;;;;;9.70;3.17;;;16.70;99.90;;;;;;2076836;28;20119;-78
2023/09/30 03:14:45;;;;;;;7.32;3.05;;;16.70;99.90;;;;;;2081739;28;20025;-78
2023/09/30 03:15:46;;;;;;;10.23;3.22;;;16.70;99.90;;;;;;2070594;28;20116;-79
2023/09/30 03:16:47;;;;;;;10.50;3.22;;;16.70;99.90;;;;;;2091175;28;20032;-78
2023/09/30 03:17:48;;;;;;;11.55;3.38;;;16.70;99.90;;;;;;2086698;28;20032;-79
2023/09/30 03:18:49;;;;;;;8.20;2.80;;;16.60;99.90;;;;;;2078552;28;20506;-79
2023/09/30 03:19:50;;;;;;;9.63;3.47;;;16.60;99.90;;;;;;2090884;28;20024;-79
2023/09/30 03:20:50;;;;;;;12.88;3.08;;;16.60;99.90;;;;;;2078484;28;20040;-78
2023/09/30 03:21:51;;;;;;;10.70;3.50;;;16.60;99.90;;;;;;2073992;28;20024;-78
2023/09/30 03:22:52;;;;;;;8.20;3.08;;;16.60;99.90;;;;;;2083303;28;20585;-78
2023/09/30 03:23:53;;;;;;;8.82;3.10;;;16.60;99.90;;;;;;2090258;28;20036;-79
2023/09/30 03:24:57;;;;;;;12.52;3.63;;;16.60;99.90;;;;;;2090193;28;20044;-78
2023/09/30 03:25:58;;;;;;;10.55;3.42;;;16.60;99.90;;;;;;2084684;28;20033;-79
2023/09/30 03:26:59;;;;;;;9.40;3.05;;;16.50;99.90;;;;;;2072580;28;20034;-78
2023/09/30 03:27:59;;;;;;;9.43;3.20;;;16.40;99.90;;;;;;2087416;28;20020;-77
2023/09/30 03:29:00;;;;;;;9.73;3.00;;;16.40;99.90;;;;;;2083724;28;20032;-81
2023/09/30 03:30:03;;;;;;;8.18;3.30;;;16.40;99.90;;;;;;2083764;28;20179;-78
2023/09/30 03:31:05;;;;;;;10.25;3.25;;;16.40;99.90;;;;;;2085097;28;20025;-78
2023/09/30 03:32:05;;;;;;;9.38;3.25;;;16.30;99.90;;;;;;2087049;28;20481;-78
2023/09/30 03:33:06;;;;;;;13.93;3.70;;;16.30;99.90;;;;;;2078489;28;20033;-79
2023/09/30 03:34:07;;;;;;;8.48;3.10;;;16.30;99.90;;;;;;2067496;28;20548;-81
2023/09/30 03:35:16;;;;;;;10.75;3.30;;;16.30;99.90;;;;;;2076993;28;20040;-78
2023/09/30 03:36:18;;;;;;;7.43;3.03;;;16.30;99.90;;;;;;2078519;28;20040;-78
2023/09/30 03:37:19;;;;;;;7.70;2.97;;;16.20;99.90;;;;;;2074816;28;20033;-79
2023/09/30 03:38:20;;;;;;;9.60;3.50;;;16.20;99.90;;;;;;2074178;28;20397;-78
2023/09/30 03:39:26;;;;;;;11.25;3.13;;;16.20;99.90;;;;;;2086364;28;20048;-79
2023/09/30 03:40:28;;;;;;;7.45;2.88;;;16.10;99.90;;;;;;2087167;28;20028;-79
2023/09/30 03:41:29;;;;;;;10.63;3.20;;;16.20;99.90;;;;;;2088963;28;20017;-79
2023/09/30 03:42:30;;;;;;;11.95;3.60;;;16.10;99.90;;;;;;2078158;28;20427;-79
2023/09/30 03:43:30;;;;;;;7.00;3.00;;;16.20;99.90;;;;;;2075857;28;20079;-79
2023/09/30 03:44:31;;;;;;;10.90;3.28;;;16.10;99.90;;;;;;2072206;28;20140;-79
2023/09/30 03:45:32;;;;;;;9.75;3.10;;;16.20;99.90;;;;;;2076303;28;20036;-79
2023/09/30 03:46:33;;;;;;;8.38;3.15;;;16.20;99.90;;;;;;2085178;28;20029;-80
2023/09/30 03:47:37;;;;;;;8.40;3.40;;;16.10;99.90;;;;;;2088805;28;20028;-79
2023/09/30 03:48:42;;;;;;;10.85;3.33;;;16.20;99.90;;;;;;2087472;28;20020;-78
2023/09/30 03:49:43;;;;;;;11.80;3.40;;;16.10;99.90;;;;;;2089258;28;20690;-79
2023/09/30 03:50:44;;;;;;;9.82;3.00;;;16.10;99.90;;;;;;2088082;28;20037;-78
2023/09/30 03:51:44;;;;;;;11.93;3.30;;;16.20;99.90;;;;;;2087511;28;20033;-79
2023/09/30 03:52:45;;;;;;;12.05;3.40;;;16.20;99.90;;;;;;2084831;28;20025;-78
2023/09/30 03:53:46;;;;;;;9.65;3.40;;;16.20;99.90;;;;;;2084840;28;20033;-79
2023/09/30 03:54:48;;;;;;;12.68;3.55;;;16.20;99.90;;;;;;2079787;28;20036;-79
2023/09/30 03:55:48;;;;;;;11.23;3.15;;;16.10;99.90;;;;;;2084752;28;20274;-78
2023/09/30 03:56:49;;;;;;;11.45;3.33;;;16.10;99.90;;;;;;2087799;28;20083;-79
2023/09/30 03:57:51;;;;;;;9.63;3.20;;;16.20;99.90;;;;;;2083955;28;20025;-78
2023/09/30 03:58:52;;;;;;;11.50;3.42;;;16.10;99.90;;;;;;2083521;28;20075;-79
2023/09/30 03:59:53;;;;;;;13.05;3.83;;;16.20;99.90;;;;;;2080285;28;20028;-79
2023/09/30 04:00:54;;;;;;;13.98;3.70;;;16.10;99.90;;;;;;2088439;28;20454;-79
2023/09/30 04:01:55;;;;;;;11.00;3.45;;;16.10;99.90;;;;;;2088718;28;20091;-78
2023/09/30 04:02:58;;;;;;;10.20;3.40;;;16.10;99.90;;;;;;2088165;28;20508;-81
2023/09/30 04:03:58;;;;;;;12.15;3.20;;;16.10;99.90;;;;;;2086752;28;20043;-78
2023/09/30 04:05:03;;;;;;;8.77;3.28;;;16.10;99.90;;;;;;2085563;28;20641;-77
2023/09/30 04:06:04;;;;;;;10.88;3.60;;;16.20;99.90;;;;;;2085155;28;20137;-78
2023/09/30 04:07:05;;;;;;;12.77;3.65;;;16.10;99.90;;;;;;2089660;28;20029;-79
2023/09/30 04:08:06;;;;;;;10.00;3.20;;;16.10;99.90;;;;;;2090512;28;20048;-79
2023/09/30 04:09:10;;;;;;;11.20;3.72;;;16.10;99.90;;;;;;2087391;28;20452;-78
2023/09/30 04:10:10;;;;;;;8.48;3.58;;;16.10;99.90;;;;;;2084251;28;20025;-78
2023/09/30 04:11:16;;;;;;;13.88;4.20;;;16.00;99.90;;;;;;2086126;28;20033;-79
2023/09/30 04:12:17;;;;;;;14.82;4.13;;;16.00;99.90;;;;;;2088298;28;20025;-77
2023/09/30 04:13:19;;;;;;;16.27;4.15;;;16.00;99.90;;;;;;2089527;28;20036;-80
2023/09/30 04:14:21;;;;;;;10.68;3.47;;;15.90;99.90;;;;;;2094355;28;20032;-80
2023/09/30 04:15:22;;;;;;;11.57;4.07;;;15.90;99.90;;;;;;2086265;28;20041;-79
2023/09/30 04:16:28;;;;;;;13.40;3.85;;;15.90;99.90;;;;;;2083768;28;20487;-80
2023/09/30 04:17:29;;;;;;;15.02;3.65;;;15.90;99.90;;;;;;2081862;28;20516;-79
2023/09/30 04:18:30;;;;;;;11.40;3.97;;;15.90;99.90;;;;;;2088581;28;20052;-80
2023/09/30 04:19:30;;;;;;;16.88;4.00;;;15.80;99.90;;;;;;2087750;28;20578;-80
2023/09/30 04:20:31;;;;;;;10.80;3.65;;;15.80;99.90;;;;;;2083257;28;20032;-78
2023/09/30 04:21:34;;;;;;;10.68;3.67;;;15.80;99.90;;;;;;2077470;28;20064;-79
2023/09/30 04:22:35;;;;;;;12.57;4.20;;;15.80;99.90;;;;;;2087249;28;20040;-79
2023/09/30 04:23:36;;;;;;;13.40;3.75;;;15.80;99.90;;;;;;2087490;28;20048;-80
2023/09/30 04:24:37;;;;;;;16.48;4.40;;;15.70;99.90;;;;;;2086051;28;21044;-80
2023/09/30 04:25:37;;;;;;;13.50;3.67;;;15.70;99.90;;;;;;2086546;28;20645;-79
2023/09/30 04:26:39;;;;;;;18.50;4.20;;;15.70;99.90;;;;;;2086578;28;20110;-79
2023/09/30 04:27:39;;;;;;;15.18;3.97;;;15.60;99.90;;;;;;2088744;28;20021;-77
2023/09/30 04:28:40;;;;;;;15.88;4.25;;;15.60;99.90;;;;;;2088457;28;20545;-78
2023/09/30 04:29:41;;;;;;;11.57;3.78;;;15.60;99.90;;;;;;2091829;28;20028;-78
2023/09/30 04:30:42;;;;;;;16.33;4.30;;;15.50;99.90;;;;;;2087672;28;20047;-80
2023/09/30 04:31:43;;;;;;;9.88;3.67;;;15.50;99.90;;;;;;2088168;28;20017;-79
2023/09/30 04:32:44;;;;;;;14.43;3.90;;;15.40;99.90;;;;;;2087463;28;20100;-78
2023/09/30 04:33:45;;;;;;;16.85;4.55;;;15.40;99.90;;;;;;2083584;28;20049;-79
2023/09/30 04:34:46;;;;;;;12.63;3.85;;;15.40;99.90;;;;;;2087609;28;20036;-80
2023/09/30 04:35:47;;;;;;;15.20;4.00;;;15.40;99.90;;;;;;2091554;28;20035;-80
2023/09/30 04:36:48;;;;;;;18.00;4.10;;;15.30;99.90;;;;;;2083375;28;20416;-79
2023/09/30 04:37:49;;;;;;;14.20;5.13;;;15.30;99.90;;;;;;2083186;28;20040;-79
2023/09/30 04:38:49;;;;;;;12.98;4.32;;;15.30;99.90;;;;;;2083660;28;20044;-79
2023/09/30 04:39:50;;;;;;;19.38;4.80;;;15.30;99.90;;;;;;2091411;28;20029;-79
2023/09/30 04:40:51;;;;;;;15.20;4.40;;;15.20;99.90;;;;;;2083131;28;20476;-79
2023/09/30 04:41:52;;;;;;;14.82;4.00;;;15.20;99.90;;;;;;2091586;28;20131;-79
2023/09/30 04:42:58;;;;;;;16.25;5.28;;;15.30;99.90;;;;;;2082748;28;20660;-79
2023/09/30 04:43:58;;;;;;;14.63;4.72;;;15.30;99.90;;;;;;2084577;28;20036;-80
2023/09/30 04:44:59;;;;;;;15.82;4.30;;;15.20;99.90;;;;;;2083060;28;20472;-80
2023/09/30 04:46:01;;;;;;;13.45;3.72;;;15.20;99.90;;;;;;2085018;28;20057;-79
2023/09/30 04:47:01;;;;;;;14.18;4.10;;;15.20;99.90;;;;;;2090390;28;20270;-80
2023/09/30 04:48:02;;;;;;;18.77;4.18;;;15.20;99.90;;;;;;2088222;28;20560;-81
2023/09/30 04:49:04;;;;;;;14.82;4.03;;;15.20;99.90;;;;;;2090268;28;20028;-80
2023/09/30 04:50:07;;;;;;;14.75;4.20;;;15.20;99.90;;;;;;2081875;28;20542;-80
2023/09/30 04:51:08;;;;;;;15.60;4.10;;;15.10;99.90;;;;;;2090648;28;20044;-80
2023/09/30 04:52:09;;;;;;;14.65;4.10;;;15.10;99.90;;;;;;2087261;28;20087;-79
2023/09/30 04:53:10;;;;;;;15.80;4.25;;;15.10;99.90;;;;;;2087553;28;20090;-80
2023/09/30 04:54:10;;;;;;;16.40;4.00;;;15.10;99.90;;;;;;2088272;28;20033;-78
2023/09/30 04:55:12;;;;;;;16.48;4.05;;;15.10;99.90;;;;;;2088668;28;20032;-77
2023/09/30 04:56:13;;;;;;;12.98;3.90;;;15.20;99.90;;;;;;2083663;28;20024;-79
2023/09/30 04:57:13;;;;;;;12.73;3.60;;;15.10;99.90;;;;;;2088289;28;20206;-80
2023/09/30 04:58:14;;;;;;;17.70;4.38;;;15.10;99.90;;;;;;2087447;28;20078;-85
2023/09/30 04:59:14;;;;;;;20.05;4.60;;;15.10;99.90;;;;;;2085123;28;20040;-84
2023/09/30 05:00:17;;;;;;;14.23;4.00;;;15.10;99.90;;;;;;2089884;28;20034;-86
2023/09/30 05:01:18;;;;;;;12.65;4.10;;;15.10;99.90;;;;;;2092944;28;20113;-80
2023/09/30 05:02:19;;;;;;;17.65;4.25;;;15.10;99.90;;;;;;2083865;28;20906;-83
2023/09/30 05:03:20;;;;;;;15.25;4.10;;;15.10;99.90;;;;;;2083932;28;20063;-80
2023/09/30 05:04:20;;;;;;;13.63;4.28;;;15.10;99.90;;;;;;2091580;28;20466;-86
2023/09/30 05:05:21;;;;;;;14.15;3.80;;;15.20;99.90;;;;;;2091842;28;20028;-90
2023/09/30 05:06:21;;;;;;;14.52;4.38;;;15.20;99.90;;;;;;2087316;28;20029;-83
2023/09/30 05:07:22;;;;;;;22.75;6.88;;;15.30;99.90;;;;;;2088153;28;20037;-88
2023/09/30 05:08:24;;;;;;;17.35;4.43;;;15.30;99.90;;;;;;2088381;28;20087;-68
2023/09/30 05:09:25;;;;;;;13.55;4.57;;;15.30;99.90;;;;;;2091329;28;20025;-68
2023/09/30 05:10:26;;;;;;;14.55;4.22;;;15.30;99.90;;;;;;2088879;28;20035;-67
2023/09/30 05:11:26;;;;;;;15.43;4.45;;;15.30;99.90;;;;;;2090586;28;20433;-67
2023/09/30 05:12:27;;;;;;;17.08;4.15;;;15.30;99.90;;;;;;2087272;28;20506;-68
2023/09/30 05:13:28;;;;;;;15.48;4.90;;;15.30;99.90;;;;;;2079988;28;20539;-68
2023/09/30 05:14:28;;;;;;;18.08;4.30;;;15.30;99.90;;;;;;2083286;28;20580;-68
2023/09/30 05:15:32;;;;;;;14.55;4.00;;;15.20;99.90;;;;;;2087724;28;20033;-67
2023/09/30 05:16:32;;;;;;;15.55;4.00;;;15.20;99.90;;;;;;2083304;28;20029;-67
2023/09/30 05:17:33;;;;;;;12.65;4.10;;;15.20;99.90;;;;;;2087263;28;20036;-67
2023/09/30 05:18:34;;;;;;;21.30;4.75;;;15.20;99.90;;;;;;2087636;28;20025;-67
2023/09/30 05:19:36;;;;;;;16.02;4.65;;;15.20;99.90;;;;;;2083693;28;20039;-66